createdAt,value
2022-12-01T00:00:58.693Z,94.46
2022-12-01T00:01:58.793Z,94.57
2022-12-01T00:02:59.995Z,94.57
2022-12-01T00:03:58.638Z,94.67
2022-12-01T00:04:58.701Z,94.78
2022-12-01T00:05:58.591Z,94.78
2022-12-01T00:06:58.828Z,94.67
2022-12-01T00:07:59.559Z,94.67
2022-12-01T00:08:58.560Z,94.78
2022-12-01T00:09:58.580Z,94.78
2022-12-01T00:10:58.550Z,94.78
2022-12-01T00:11:58.559Z,94.78
2022-12-01T00:12:58.506Z,94.78
2022-12-01T00:13:59.565Z,94.78
2022-12-01T00:14:58.809Z,94.78
2022-12-01T00:15:58.879Z,94.78
2022-12-01T00:16:58.582Z,94.78
2022-12-01T00:17:58.500Z,94.67
2022-12-01T00:18:59.532Z,94.78
2022-12-01T00:19:58.482Z,94.78
2022-12-01T00:20:58.541Z,94.67
2022-12-01T00:21:58.860Z,94.57
2022-12-01T00:22:58.419Z,94.78
2022-12-01T00:23:59.352Z,94.78
2022-12-01T00:24:58.413Z,94.57
2022-12-01T00:25:58.344Z,94.57
2022-12-01T00:26:58.462Z,94.57
2022-12-01T00:27:58.439Z,94.46
2022-12-01T00:28:59.600Z,94.35
2022-12-01T00:29:58.364Z,94.35
2022-12-01T00:30:58.289Z,94.15
2022-12-01T00:31:58.710Z,94.04
2022-12-01T00:32:58.359Z,93.98
2022-12-01T00:33:58.568Z,93.88
2022-12-01T00:34:59.242Z,93.88
2022-12-01T00:35:58.526Z,93.88
2022-12-01T00:36:58.330Z,93.88
2022-12-01T00:37:58.373Z,93.77
2022-12-01T00:38:58.357Z,93.88
2022-12-01T00:39:58.228Z,94.09
2022-12-01T00:40:59.094Z,93.98
2022-12-01T00:41:58.501Z,93.77
2022-12-01T00:43:02.256Z,93.77
2022-12-01T00:43:58.234Z,93.77
2022-12-01T00:44:58.213Z,93.88
2022-12-01T00:45:58.423Z,93.88
2022-12-01T00:46:59.125Z,93.98
2022-12-01T00:47:58.273Z,94.09
2022-12-01T00:48:58.131Z,94.09
2022-12-01T00:49:59.786Z,94.09
2022-12-01T00:50:58.587Z,94.19
2022-12-01T00:51:59.015Z,94.19
2022-12-01T00:52:58.327Z,94.19
2022-12-01T00:53:58.139Z,94.09
2022-12-01T00:54:58.027Z,93.88
2022-12-01T00:55:58.063Z,93.98
2022-12-01T00:56:58.914Z,93.88
2022-12-01T00:57:57.984Z,93.77
2022-12-01T00:58:58.024Z,93.88
2022-12-01T00:59:57.970Z,93.88
2022-12-01T01:00:58.005Z,93.88
2022-12-01T01:01:59.019Z,93.98
2022-12-01T01:02:57.904Z,93.88
2022-12-01T01:03:57.907Z,93.88
2022-12-01T01:04:58.173Z,93.98
2022-12-01T01:05:57.875Z,93.98
2022-12-01T01:06:58.854Z,93.98
2022-12-01T01:07:57.942Z,94.09
2022-12-01T01:08:57.884Z,94.09
2022-12-01T01:09:57.812Z,94.09
2022-12-01T01:10:57.849Z,94.09
2022-12-01T01:11:58.059Z,93.98
2022-12-01T01:12:58.747Z,94.09
2022-12-01T01:13:57.870Z,94.19
2022-12-01T01:14:57.756Z,94.19
2022-12-01T01:15:57.776Z,94.29
2022-12-01T01:16:57.769Z,94.29
2022-12-01T01:17:58.716Z,94.19
2022-12-01T01:18:57.682Z,94.19
2022-12-01T01:19:57.688Z,94.19
2022-12-01T01:20:57.714Z,94.19
2022-12-01T01:21:57.677Z,94.29
2022-12-01T01:22:57.713Z,94.40
2022-12-01T01:24:04.302Z,94.29
2022-12-01T01:24:57.999Z,94.29
2022-12-01T01:25:57.705Z,94.19
2022-12-01T01:26:58.536Z,94.19
2022-12-01T01:27:57.704Z,94.19
2022-12-01T01:28:59.353Z,94.29
2022-12-01T01:29:58.574Z,94.29
2022-12-01T01:30:57.628Z,94.29
2022-12-01T01:31:57.875Z,94.19
2022-12-01T01:32:57.562Z,94.09
2022-12-01T01:33:57.536Z,94.19
2022-12-01T01:34:58.440Z,94.19
2022-12-01T01:35:57.508Z,94.19
2022-12-01T01:36:57.533Z,94.19
2022-12-01T01:37:57.516Z,94.19
2022-12-01T01:38:57.446Z,94.19
2022-12-01T01:39:58.421Z,94.19
2022-12-01T01:40:57.439Z,94.09
2022-12-01T01:41:57.782Z,94.19
2022-12-01T01:42:57.475Z,94.29
2022-12-01T01:43:57.386Z,94.19
2022-12-01T01:45:01.346Z,94.09
2022-12-01T01:45:58.382Z,94.09
2022-12-01T01:46:57.490Z,94.09
2022-12-01T01:47:57.414Z,94.09
2022-12-01T01:48:57.376Z,94.09
2022-12-01T01:49:57.320Z,94.19
2022-12-01T01:50:58.271Z,94.19
2022-12-01T01:51:57.368Z,94.29
2022-12-01T01:52:57.315Z,94.29
2022-12-01T01:53:57.279Z,94.29
2022-12-01T01:54:57.296Z,94.29
2022-12-01T01:55:57.256Z,94.40
2022-12-01T01:56:58.316Z,94.40
2022-12-01T01:57:57.227Z,94.29
2022-12-01T01:58:57.205Z,94.40
2022-12-01T01:59:57.541Z,94.40
2022-12-01T02:00:57.246Z,94.40
2022-12-01T02:01:57.367Z,94.50
2022-12-01T02:02:58.228Z,94.61
2022-12-01T02:03:57.156Z,94.61
2022-12-01T02:04:57.205Z,94.61
2022-12-01T02:06:00.551Z,94.61
2022-12-01T02:06:58.647Z,94.61
2022-12-01T02:07:58.575Z,94.61
2022-12-01T02:08:57.068Z,94.71
2022-12-01T02:09:57.084Z,94.61
2022-12-01T02:10:57.046Z,94.50
2022-12-01T02:11:57.062Z,94.40
2022-12-01T02:12:57.040Z,94.50
2022-12-01T02:13:58.501Z,94.61
2022-12-01T02:15:01.025Z,94.61
2022-12-01T02:15:57.003Z,94.50
2022-12-01T02:16:57.167Z,94.61
2022-12-01T02:17:57.013Z,94.61
2022-12-01T02:19:01.849Z,94.50
2022-12-01T02:19:56.951Z,94.71
2022-12-01T02:20:56.973Z,94.82
2022-12-01T02:21:56.987Z,94.71
2022-12-01T02:22:56.914Z,94.71
2022-12-01T02:23:57.865Z,94.82
2022-12-01T02:24:56.903Z,94.71
2022-12-01T02:25:56.861Z,94.82
2022-12-01T02:26:57.370Z,94.71
2022-12-01T02:27:56.847Z,94.61
2022-12-01T02:28:56.945Z,94.50
2022-12-01T02:29:57.813Z,94.50
2022-12-01T02:30:56.898Z,94.61
2022-12-01T02:31:56.858Z,94.61
2022-12-01T02:32:56.818Z,94.71
2022-12-01T02:33:56.782Z,94.82
2022-12-01T02:34:57.712Z,94.61
2022-12-01T02:35:56.825Z,94.50
2022-12-01T02:36:56.728Z,94.29
2022-12-01T02:37:57.008Z,94.50
2022-12-01T02:38:56.728Z,94.40
2022-12-01T02:39:57.664Z,94.40
2022-12-01T02:40:56.963Z,94.44
2022-12-01T02:41:56.665Z,94.55
2022-12-01T02:42:56.680Z,94.55
2022-12-01T02:43:56.682Z,94.65
2022-12-01T02:45:00.687Z,94.76
2022-12-01T02:45:57.616Z,94.76
2022-12-01T02:46:56.850Z,94.86
2022-12-01T02:47:57.016Z,94.76
2022-12-01T02:48:56.585Z,94.76
2022-12-01T02:49:56.679Z,94.86
2022-12-01T02:50:57.762Z,94.86
2022-12-01T02:51:56.540Z,94.65
2022-12-01T02:52:56.663Z,94.76
2022-12-01T02:53:56.541Z,94.65
2022-12-01T02:54:56.549Z,94.55
2022-12-01T02:55:56.556Z,94.55
2022-12-01T02:56:57.453Z,94.55
2022-12-01T02:57:56.519Z,94.44
2022-12-01T02:58:56.533Z,94.44
2022-12-01T02:59:56.439Z,94.44
2022-12-01T03:00:56.742Z,94.55
2022-12-01T03:01:56.430Z,94.55
2022-12-01T03:02:57.521Z,94.65
2022-12-01T03:03:57.471Z,94.65
2022-12-01T03:04:56.397Z,94.65
2022-12-01T03:05:56.732Z,94.76
2022-12-01T03:06:56.633Z,94.65
2022-12-01T03:07:56.419Z,94.65
2022-12-01T03:08:57.316Z,94.65
2022-12-01T03:09:56.351Z,94.65
2022-12-01T03:10:56.310Z,94.55
2022-12-01T03:11:56.307Z,94.44
2022-12-01T03:12:56.327Z,94.55
2022-12-01T03:13:57.264Z,94.65
2022-12-01T03:15:00.129Z,94.55
2022-12-01T03:15:56.358Z,94.55
2022-12-01T03:16:56.290Z,94.65
2022-12-01T03:17:56.670Z,94.65
2022-12-01T03:18:57.550Z,94.76
2022-12-01T03:19:56.281Z,94.76
2022-12-01T03:20:56.234Z,94.86
2022-12-01T03:21:56.188Z,94.96
2022-12-01T03:22:56.161Z,94.90
2022-12-01T03:23:56.279Z,94.96
2022-12-01T03:24:57.206Z,94.90
2022-12-01T03:25:56.169Z,94.90
2022-12-01T03:26:56.193Z,95.01
2022-12-01T03:28:20.231Z,95.01
2022-12-01T03:28:57.143Z,94.96
2022-12-01T03:29:56.143Z,95.01
2022-12-01T03:30:57.081Z,95.11
2022-12-01T03:31:56.060Z,95.01
2022-12-01T03:32:56.089Z,95.01
2022-12-01T03:33:56.050Z,94.96
2022-12-01T03:34:56.016Z,94.96
2022-12-01T03:35:57.338Z,94.86
2022-12-01T03:36:55.985Z,94.76
2022-12-01T03:37:56.057Z,94.76
2022-12-01T03:38:56.061Z,94.76
2022-12-01T03:40:00.225Z,94.65
2022-12-01T03:40:55.945Z,94.76
2022-12-01T03:41:56.897Z,94.76
2022-12-01T03:42:56.033Z,94.76
2022-12-01T03:43:55.896Z,94.65
2022-12-01T03:44:56.602Z,94.76
2022-12-01T03:46:00.016Z,94.76
2022-12-01T03:46:55.951Z,94.76
2022-12-01T03:47:57.006Z,94.65
2022-12-01T03:48:56.249Z,94.55
2022-12-01T03:49:55.828Z,94.44
2022-12-01T03:50:56.460Z,94.44
2022-12-01T03:51:55.822Z,94.44
2022-12-01T03:52:55.893Z,94.55
2022-12-01T03:54:02.406Z,94.55
2022-12-01T03:54:56.179Z,94.65
2022-12-01T03:55:55.742Z,94.65
2022-12-01T03:56:55.755Z,94.65
2022-12-01T03:57:59.710Z,94.76
2022-12-01T03:58:57.858Z,94.55
2022-12-01T03:59:55.733Z,94.44
2022-12-01T04:00:55.755Z,94.49
2022-12-01T04:01:55.799Z,94.49
2022-12-01T04:02:56.161Z,94.49
2022-12-01T04:03:55.670Z,94.49
2022-12-01T04:04:56.651Z,94.49
2022-12-01T04:05:56.096Z,94.38
2022-12-01T04:06:59.474Z,94.38
2022-12-01T04:07:55.660Z,94.49
2022-12-01T04:08:55.861Z,94.70
2022-12-01T04:09:56.617Z,94.70
2022-12-01T04:10:55.614Z,94.70
2022-12-01T04:11:55.583Z,94.70
2022-12-01T04:12:55.538Z,94.80
2022-12-01T04:13:55.726Z,94.80
2022-12-01T04:14:56.499Z,94.90
2022-12-01T04:15:55.636Z,94.90
2022-12-01T04:16:55.518Z,94.70
2022-12-01T04:17:55.496Z,94.70
2022-12-01T04:18:55.522Z,94.70
2022-12-01T04:19:55.470Z,94.80
2022-12-01T04:20:56.527Z,94.70
2022-12-01T04:21:55.497Z,94.70
2022-12-01T04:22:55.498Z,94.80
2022-12-01T04:23:56.337Z,94.80
2022-12-01T04:24:55.492Z,94.80
2022-12-01T04:25:56.355Z,94.90
2022-12-01T04:26:55.395Z,94.90
2022-12-01T04:27:55.415Z,94.90
2022-12-01T04:28:55.482Z,94.80
2022-12-01T04:29:55.429Z,94.80
2022-12-01T04:30:56.609Z,94.80
2022-12-01T04:31:55.622Z,94.90
2022-12-01T04:32:55.304Z,94.80
2022-12-01T04:33:55.713Z,94.70
2022-12-01T04:34:55.329Z,94.80
2022-12-01T04:35:58.064Z,94.90
2022-12-01T04:36:59.500Z,95.01
2022-12-01T04:37:55.307Z,95.01
2022-12-01T04:38:55.271Z,95.11
2022-12-01T04:39:55.270Z,95.11
2022-12-01T04:40:56.126Z,95.01
2022-12-01T04:41:55.257Z,95.01
2022-12-01T04:42:55.205Z,95.01
2022-12-01T04:43:55.539Z,95.01
2022-12-01T04:44:55.148Z,95.01
2022-12-01T04:45:56.123Z,94.90
2022-12-01T04:46:55.260Z,94.90
2022-12-01T04:47:55.154Z,95.01
2022-12-01T04:48:55.162Z,95.01
2022-12-01T04:49:55.088Z,94.90
2022-12-01T04:50:55.145Z,94.90
2022-12-01T04:51:56.133Z,94.90
2022-12-01T04:52:55.107Z,94.90
2022-12-01T04:53:55.406Z,94.90
2022-12-01T04:54:55.108Z,94.90
2022-12-01T04:55:57.918Z,94.90
2022-12-01T04:56:55.019Z,94.80
2022-12-01T04:57:55.978Z,94.80
2022-12-01T04:58:55.802Z,94.65
2022-12-01T04:59:55.013Z,94.76
2022-12-01T05:00:55.156Z,94.76
2022-12-01T05:01:55.024Z,94.55
2022-12-01T05:02:54.988Z,94.55
2022-12-01T05:03:56.459Z,94.65
2022-12-01T05:04:54.946Z,94.65
2022-12-01T05:05:54.895Z,94.76
2022-12-01T05:06:54.936Z,94.80
2022-12-01T05:07:54.966Z,94.80
2022-12-01T05:08:54.861Z,94.80
2022-12-01T05:09:57.027Z,94.70
2022-12-01T05:10:54.841Z,94.70
2022-12-01T05:11:58.882Z,94.90
2022-12-01T05:12:54.852Z,95.01
2022-12-01T05:13:55.621Z,95.01
2022-12-01T05:14:56.077Z,95.11
2022-12-01T05:15:54.895Z,95.21
2022-12-01T05:16:54.929Z,95.21
2022-12-01T05:17:55.682Z,95.11
2022-12-01T05:18:54.802Z,95.11
2022-12-01T05:19:55.685Z,95.01
2022-12-01T05:20:54.720Z,95.01
2022-12-01T05:21:54.809Z,94.90
2022-12-01T05:23:05.200Z,94.80
2022-12-01T05:23:56.182Z,94.80
2022-12-01T05:24:55.871Z,94.70
2022-12-01T05:25:55.046Z,94.70
2022-12-01T05:26:54.771Z,94.80
2022-12-01T05:27:54.640Z,94.80
2022-12-01T05:28:54.676Z,95.01
2022-12-01T05:29:54.631Z,95.01
2022-12-01T05:30:55.524Z,94.90
2022-12-01T05:31:54.667Z,94.90
2022-12-01T05:32:54.926Z,94.90
2022-12-01T05:33:54.915Z,94.90
2022-12-01T05:34:54.640Z,94.80
2022-12-01T05:35:55.504Z,94.70
2022-12-01T05:36:54.575Z,94.70
2022-12-01T05:37:54.810Z,94.70
2022-12-01T05:38:54.527Z,94.70
2022-12-01T05:39:54.513Z,94.80
2022-12-01T05:40:55.388Z,94.70
2022-12-01T05:41:55.698Z,94.80
2022-12-01T05:42:54.660Z,94.70
2022-12-01T05:43:54.831Z,94.70
2022-12-01T05:44:54.448Z,94.70
2022-12-01T05:45:54.977Z,94.70
2022-12-01T05:46:55.438Z,94.70
2022-12-01T05:47:54.371Z,94.70
2022-12-01T05:48:54.427Z,94.80
2022-12-01T05:49:54.335Z,94.59
2022-12-01T05:50:54.362Z,94.49
2022-12-01T05:51:54.390Z,94.38
2022-12-01T05:52:55.525Z,94.49
2022-12-01T05:53:54.366Z,94.49
2022-12-01T05:54:54.350Z,94.59
2022-12-01T05:55:54.641Z,94.59
2022-12-01T05:56:54.727Z,94.70
2022-12-01T05:57:56.121Z,94.70
2022-12-01T05:58:54.335Z,94.49
2022-12-01T05:59:54.246Z,94.49
2022-12-01T06:00:54.617Z,94.59
2022-12-01T06:01:56.003Z,94.49
2022-12-01T06:02:55.126Z,94.49
2022-12-01T06:03:54.626Z,94.59
2022-12-01T06:04:54.166Z,94.70
2022-12-01T06:05:54.243Z,94.70
2022-12-01T06:06:54.286Z,94.70
2022-12-01T06:07:54.497Z,94.49
2022-12-01T06:08:55.120Z,94.49
2022-12-01T06:09:54.615Z,94.49
2022-12-01T06:10:54.143Z,94.38
2022-12-01T06:11:54.277Z,94.38
2022-12-01T06:12:54.400Z,94.38
2022-12-01T06:13:55.033Z,94.49
2022-12-01T06:14:54.979Z,94.59
2022-12-01T06:15:54.098Z,94.59
2022-12-01T06:16:57.775Z,94.70
2022-12-01T06:17:54.021Z,94.70
2022-12-01T06:18:54.025Z,94.70
2022-12-01T06:19:55.002Z,94.80
2022-12-01T06:20:54.007Z,94.80
2022-12-01T06:21:53.992Z,94.70
2022-12-01T06:22:53.974Z,94.70
2022-12-01T06:23:54.069Z,94.59
2022-12-01T06:24:54.941Z,94.70
2022-12-01T06:25:54.261Z,95.01
2022-12-01T06:26:53.943Z,94.80
2022-12-01T06:27:53.917Z,94.59
2022-12-01T06:28:53.908Z,94.38
2022-12-01T06:29:54.822Z,94.27
2022-12-01T06:30:59.323Z,94.27
2022-12-01T06:31:55.403Z,94.17
2022-12-01T06:32:53.937Z,94.07
2022-12-01T06:33:53.917Z,94.38
2022-12-01T06:34:54.851Z,94.38
2022-12-01T06:35:53.792Z,94.17
2022-12-01T06:36:53.919Z,94.07
2022-12-01T06:37:54.593Z,94.07
2022-12-01T06:38:54.305Z,93.96
2022-12-01T06:39:54.648Z,93.96
2022-12-01T06:40:53.986Z,93.96
2022-12-01T06:41:53.712Z,93.86
2022-12-01T06:42:54.000Z,93.86
2022-12-01T06:43:53.678Z,93.86
2022-12-01T06:44:54.024Z,93.76
2022-12-01T06:46:00.826Z,93.86
2022-12-01T06:46:55.246Z,93.76
2022-12-01T06:47:53.665Z,93.76
2022-12-01T06:48:54.711Z,93.76
2022-12-01T06:49:53.976Z,93.76
2022-12-01T06:50:54.593Z,93.65
2022-12-01T06:51:57.628Z,93.65
2022-12-01T06:52:53.927Z,93.76
2022-12-01T06:53:55.051Z,93.65
2022-12-01T06:54:53.595Z,93.54
2022-12-01T06:55:53.642Z,93.54
2022-12-01T06:56:54.483Z,93.65
2022-12-01T06:57:53.573Z,93.54
2022-12-01T06:58:53.523Z,93.33
2022-12-01T06:59:53.647Z,93.23
2022-12-01T07:00:53.554Z,93.23
2022-12-01T07:01:54.452Z,93.33
2022-12-01T07:02:53.646Z,93.33
2022-12-01T07:03:54.242Z,93.33
2022-12-01T07:04:53.643Z,93.33
2022-12-01T07:05:56.363Z,93.23
2022-12-01T07:06:54.405Z,93.23
2022-12-01T07:07:59.138Z,93.23
2022-12-01T07:08:55.113Z,93.23
2022-12-01T07:09:57.300Z,93.33
2022-12-01T07:10:53.423Z,93.33
2022-12-01T07:11:53.383Z,93.23
2022-12-01T07:12:55.231Z,93.02
2022-12-01T07:13:53.416Z,93.13
2022-12-01T07:14:55.745Z,93.23
2022-12-01T07:15:53.529Z,93.33
2022-12-01T07:16:55.410Z,93.33
2022-12-01T07:17:54.634Z,93.23
2022-12-01T07:18:55.897Z,93.02
2022-12-01T07:19:54.755Z,92.92
2022-12-01T07:20:54.930Z,92.82
2022-12-01T07:21:53.735Z,92.71
2022-12-01T07:22:55.719Z,92.82
2022-12-01T07:23:53.760Z,92.71
2022-12-01T07:24:53.200Z,92.60
2022-12-01T07:25:54.285Z,92.50
2022-12-01T07:27:14.664Z,92.60
2022-12-01T07:27:53.641Z,92.50
2022-12-01T07:28:54.254Z,92.50
2022-12-01T07:29:54.106Z,92.40
2022-12-01T07:30:53.236Z,92.40
2022-12-01T07:31:53.296Z,92.40
2022-12-01T07:32:53.563Z,92.40
2022-12-01T07:33:54.334Z,92.71
2022-12-01T07:34:53.301Z,93.08
2022-12-01T07:35:53.242Z,92.56
2022-12-01T07:36:54.688Z,92.77
2022-12-01T07:37:55.279Z,92.66
2022-12-01T07:38:54.409Z,92.56
2022-12-01T07:39:53.078Z,92.56
2022-12-01T07:40:53.741Z,92.66
2022-12-01T07:41:53.160Z,92.77
2022-12-01T07:42:52.999Z,92.56
2022-12-01T07:43:53.407Z,92.25
2022-12-01T07:44:53.939Z,92.14
2022-12-01T07:45:53.046Z,92.04
2022-12-01T07:46:52.939Z,92.04
2022-12-01T07:47:57.204Z,91.94
2022-12-01T07:48:52.969Z,91.83
2022-12-01T07:49:53.977Z,91.94
2022-12-01T07:50:52.877Z,91.94
2022-12-01T07:51:53.266Z,92.04
2022-12-01T07:52:52.904Z,91.94
2022-12-01T07:53:52.971Z,91.94
2022-12-01T07:54:53.955Z,91.72
2022-12-01T07:55:53.190Z,91.62
2022-12-01T07:56:53.913Z,91.72
2022-12-01T07:57:53.164Z,91.72
2022-12-01T07:58:57.561Z,91.72
2022-12-01T07:59:53.368Z,91.62
2022-12-01T08:00:54.915Z,91.52
2022-12-01T08:01:53.775Z,91.41
2022-12-01T08:02:53.285Z,91.31
2022-12-01T08:03:53.191Z,91.20
2022-12-01T08:04:53.225Z,91.10
2022-12-01T08:05:55.187Z,91.20
2022-12-01T08:06:53.335Z,91.41
2022-12-01T08:07:52.755Z,91.52
2022-12-01T08:08:53.043Z,91.52
2022-12-01T08:09:53.397Z,91.41
2022-12-01T08:10:59.253Z,91.31
2022-12-01T08:11:53.149Z,91.20
2022-12-01T08:12:53.023Z,91.41
2022-12-01T08:13:54.907Z,91.83
2022-12-01T08:14:53.073Z,91.72
2022-12-01T08:16:02.357Z,91.94
2022-12-01T08:16:53.020Z,92.04
2022-12-01T08:17:52.782Z,92.04
2022-12-01T08:18:53.002Z,91.94
2022-12-01T08:19:53.968Z,91.83
2022-12-01T08:20:53.341Z,91.83
2022-12-01T08:21:53.500Z,91.83
2022-12-01T08:22:53.248Z,91.72
2022-12-01T08:23:52.991Z,91.72
2022-12-01T08:24:52.977Z,91.83
2022-12-01T08:25:52.548Z,91.72
2022-12-01T08:26:59.239Z,91.72
2022-12-01T08:27:56.696Z,91.83
2022-12-01T08:29:19.729Z,91.83
2022-12-01T08:29:53.882Z,91.62
2022-12-01T08:30:52.816Z,91.62
2022-12-01T08:31:53.651Z,91.52
2022-12-01T08:32:52.942Z,91.52
2022-12-01T08:33:52.535Z,91.41
2022-12-01T08:34:53.745Z,91.31
2022-12-01T08:35:52.855Z,91.41
2022-12-01T08:36:52.851Z,91.52
2022-12-01T08:37:53.595Z,91.52
2022-12-01T08:38:52.853Z,91.52
2022-12-01T08:39:52.697Z,91.52
2022-12-01T08:40:52.801Z,91.52
2022-12-01T08:41:52.334Z,91.52
2022-12-01T08:42:52.761Z,91.41
2022-12-01T08:43:58.299Z,91.41
2022-12-01T08:44:54.359Z,91.41
2022-12-01T08:45:52.683Z,91.31
2022-12-01T08:46:52.709Z,91.10
2022-12-01T08:47:52.371Z,91.00
2022-12-01T08:48:53.121Z,90.89
2022-12-01T08:49:52.344Z,90.68
2022-12-01T08:50:52.572Z,90.68
2022-12-01T08:51:52.834Z,90.78
2022-12-01T08:52:52.545Z,90.78
2022-12-01T08:53:53.703Z,90.89
2022-12-01T08:54:52.684Z,90.68
2022-12-01T08:55:52.526Z,90.58
2022-12-01T08:57:13.062Z,90.47
2022-12-01T08:57:54.256Z,90.37
2022-12-01T08:58:59.785Z,90.26
2022-12-01T08:59:52.942Z,90.37
2022-12-01T09:00:52.325Z,90.16
2022-12-01T09:01:52.650Z,90.16
2022-12-01T09:02:52.418Z,90.16
2022-12-01T09:03:53.352Z,90.37
2022-12-01T09:04:52.402Z,90.37
2022-12-01T09:05:51.935Z,90.47
2022-12-01T09:06:52.647Z,90.47
2022-12-01T09:07:52.001Z,90.47
2022-12-01T09:08:57.119Z,90.37
2022-12-01T09:09:53.383Z,90.26
2022-12-01T09:10:52.977Z,90.26
2022-12-01T09:11:51.965Z,90.47
2022-12-01T09:12:53.185Z,90.43
2022-12-01T09:13:54.717Z,90.22
2022-12-01T09:14:52.944Z,90.01
2022-12-01T09:15:51.949Z,90.01
2022-12-01T09:16:52.285Z,90.12
2022-12-01T09:17:52.802Z,90.22
2022-12-01T09:18:52.519Z,90.22
2022-12-01T09:19:52.370Z,90.12
2022-12-01T09:20:52.762Z,90.22
2022-12-01T09:21:52.723Z,90.16
2022-12-01T09:22:52.144Z,90.06
2022-12-01T09:23:52.636Z,90.06
2022-12-01T09:24:51.764Z,90.16
2022-12-01T09:25:51.966Z,90.47
2022-12-01T09:26:53.105Z,90.58
2022-12-01T09:27:56.338Z,90.37
2022-12-01T09:28:53.992Z,90.22
2022-12-01T09:29:52.109Z,90.22
2022-12-01T09:30:51.932Z,90.22
2022-12-01T09:31:53.039Z,90.33
2022-12-01T09:32:52.040Z,90.22
2022-12-01T09:33:52.134Z,90.22
2022-12-01T09:34:52.096Z,90.12
2022-12-01T09:35:52.067Z,90.01
2022-12-01T09:36:52.950Z,90.01
2022-12-01T09:37:51.941Z,90.12
2022-12-01T09:38:52.570Z,90.22
2022-12-01T09:39:51.788Z,90.22
2022-12-01T09:40:51.567Z,90.22
2022-12-01T09:41:52.912Z,90.33
2022-12-01T09:42:51.583Z,90.33
